createdAt,value
2023-01-18T00:03:16.039Z,61.31
2023-01-18T00:08:15.833Z,61.34
2023-01-18T00:13:12.584Z,61.04
2023-01-18T00:18:09.069Z,60.96
2023-01-18T00:23:05.725Z,60.71
2023-01-18T00:28:03.296Z,60.71
2023-01-18T00:33:00.233Z,60.46
2023-01-18T00:37:57.109Z,60.29
2023-01-18T00:43:11.999Z,60.01
2023-01-18T00:48:11.912Z,59.82
2023-01-18T00:53:08.530Z,59.92
2023-01-18T00:58:05.189Z,59.58
2023-01-18T01:03:01.918Z,60.08
2023-01-18T01:07:59.158Z,59.78
2023-01-18T01:13:14.472Z,59.83
2023-01-18T01:18:30.382Z,59.59
2023-01-18T01:23:45.862Z,58.84
2023-01-18T01:28:43.394Z,59.09
2023-01-18T01:33:40.015Z,58.75
2023-01-18T01:38:37.278Z,58.85
2023-01-18T01:43:38.120Z,58.33
2023-01-18T01:48:34.746Z,58.32
2023-01-18T01:53:31.575Z,58.27
2023-01-18T01:58:31.316Z,58.39
2023-01-18T02:03:28.140Z,58.72
2023-01-18T02:08:28.492Z,58.94
2023-01-18T02:13:25.747Z,58.95
2023-01-18T02:18:24.685Z,59.23
2023-01-18T02:23:42.130Z,59.32
2023-01-18T02:28:44.411Z,59.24
2023-01-18T02:33:44.891Z,59.04
2023-01-18T02:38:43.824Z,59.10
2023-01-18T02:43:59.892Z,58.87
2023-01-18T02:48:57.477Z,58.75
2023-01-18T02:53:54.293Z,59.02
2023-01-18T02:58:54.464Z,58.88
2023-01-18T03:03:51.754Z,59.16
2023-01-18T03:08:49.905Z,58.38
2023-01-18T03:13:55.727Z,58.32
2023-01-18T03:19:01.550Z,58.12
2023-01-18T03:24:00.341Z,57.66
2023-01-18T03:29:16.572Z,57.49
2023-01-18T03:34:17.687Z,57.35
2023-01-18T03:39:17.593Z,57.11
2023-01-18T03:44:17.913Z,56.71
2023-01-18T03:49:15.866Z,56.78
2023-01-18T03:54:16.175Z,56.84
2023-01-18T03:59:13.920Z,57.08
2023-01-18T04:04:10.907Z,57.47
2023-01-18T04:09:08.248Z,57.46
2023-01-18T04:14:04.780Z,57.91
2023-01-18T04:19:01.349Z,57.94
2023-01-18T04:23:58.198Z,57.62
2023-01-18T04:28:55.404Z,58.00
2023-01-18T04:33:52.009Z,57.88
2023-01-18T04:38:51.894Z,57.96
2023-01-18T04:43:48.558Z,58.16
2023-01-18T04:48:48.671Z,58.78
2023-01-18T04:53:54.808Z,58.80
2023-01-18T04:58:52.283Z,59.12
2023-01-18T05:03:52.629Z,59.28
2023-01-18T05:08:50.096Z,59.17
2023-01-18T05:13:50.499Z,59.47
2023-01-18T05:18:47.497Z,59.64
2023-01-18T05:23:45.243Z,59.98
2023-01-18T05:28:42.521Z,59.89
2023-01-18T05:33:39.168Z,59.79
2023-01-18T05:38:35.683Z,59.61
2023-01-18T05:43:34.587Z,59.69
2023-01-18T05:48:32.244Z,59.21
2023-01-18T05:53:28.855Z,59.03
2023-01-18T05:58:25.917Z,59.07
2023-01-18T06:03:28.242Z,58.89
2023-01-18T06:08:29.092Z,58.44
2023-01-18T06:13:29.236Z,58.43
2023-01-18T06:18:31.001Z,58.50
2023-01-18T06:23:27.822Z,58.41
2023-01-18T06:28:25.504Z,58.11
2023-01-18T06:33:22.313Z,58.21
2023-01-18T06:38:20.087Z,58.26
2023-01-18T06:43:16.859Z,58.17
2023-01-18T06:48:21.397Z,58.16
2023-01-18T06:53:21.495Z,58.39
2023-01-18T06:58:18.292Z,58.35
2023-01-18T07:03:14.897Z,58.11
2023-01-18T07:08:13.854Z,57.56
2023-01-18T07:13:11.320Z,56.87
2023-01-18T07:18:08.064Z,56.76
2023-01-18T07:23:06.904Z,55.96
2023-01-18T07:28:07.703Z,55.93
2023-01-18T07:33:14.330Z,55.59
2023-01-18T07:38:14.750Z,55.54
2023-01-18T07:43:27.227Z,55.49
2023-01-18T07:48:43.390Z,55.02
2023-01-18T07:54:02.525Z,54.88
2023-01-18T08:04:44.964Z,55.02
2023-01-18T08:10:08.671Z,54.51
2023-01-18T08:15:16.000Z,54.74
2023-01-18T08:20:28.471Z,54.08
2023-01-18T08:26:13.937Z,53.76
2023-01-18T08:31:15.845Z,53.09
2023-01-18T08:36:15.245Z,52.70
2023-01-18T08:41:14.169Z,52.03
2023-01-18T08:46:10.714Z,51.64
2023-01-18T08:51:08.034Z,51.74
2023-01-18T08:56:05.692Z,50.91
2023-01-18T09:01:04.530Z,50.93
2023-01-18T09:06:01.383Z,50.22
2023-01-18T09:11:09.769Z,50.43
2023-01-18T09:16:10.695Z,50.50
2023-01-18T09:21:08.629Z,50.09
2023-01-18T09:26:06.468Z,49.81
2023-01-18T09:31:04.630Z,49.66
2023-01-18T09:36:02.025Z,49.31
2023-01-18T09:40:58.928Z,49.22
2023-01-18T09:45:56.276Z,49.09
2023-01-18T09:50:53.978Z,48.93
2023-01-18T09:55:56.289Z,49.00
2023-01-18T10:00:55.471Z,48.91
2023-01-18T10:06:24.162Z,48.34
2023-01-18T10:11:25.810Z,48.16
2023-01-18T10:16:22.913Z,48.22
2023-01-18T10:21:26.885Z,47.29
2023-01-18T10:26:26.933Z,47.01
2023-01-18T10:31:31.510Z,47.25
2023-01-18T10:36:32.058Z,47.16
2023-01-18T10:41:33.013Z,47.21
2023-01-18T10:46:32.429Z,46.91
2023-01-18T10:51:30.864Z,46.56
2023-01-18T10:56:28.427Z,46.09
2023-01-18T11:01:27.608Z,45.70
2023-01-18T11:06:25.010Z,45.87
2023-01-18T11:11:48.888Z,44.92
2023-01-18T11:16:57.759Z,44.83
2023-01-18T11:21:54.921Z,44.17
2023-01-18T11:27:06.389Z,44.02
2023-01-18T11:32:06.064Z,44.35
2023-01-18T11:37:03.492Z,44.15
2023-01-18T11:42:15.253Z,43.68
2023-01-18T11:47:19.640Z,43.87
2023-01-18T11:52:22.623Z,44.10
2023-01-18T11:57:19.780Z,43.87
2023-01-18T12:02:45.015Z,43.52
2023-01-18T12:07:48.826Z,42.90
2023-01-18T12:12:56.246Z,43.04
2023-01-18T12:18:12.818Z,42.86
2023-01-18T12:23:30.747Z,42.49
2023-01-18T12:28:33.962Z,42.35
2023-01-18T12:33:43.818Z,42.17
2023-01-18T12:38:46.035Z,41.71
2023-01-18T12:43:48.930Z,41.80
2023-01-18T12:48:48.618Z,41.97
2023-01-18T12:53:48.719Z,41.88
2023-01-18T12:58:46.711Z,42.00
2023-01-18T13:03:44.440Z,41.80
2023-01-18T13:08:44.658Z,41.56
2023-01-18T13:13:44.296Z,41.56
2023-01-18T13:18:43.723Z,41.49
2023-01-18T13:23:46.338Z,41.65
2023-01-18T13:28:45.753Z,42.03
2023-01-18T13:33:44.948Z,42.01
2023-01-18T13:38:49.712Z,42.18
2023-01-18T13:44:03.987Z,42.57
2023-01-18T13:49:01.815Z,43.09
2023-01-18T13:53:59.838Z,43.37
2023-01-18T13:59:01.489Z,43.63
2023-01-18T14:04:05.635Z,44.20
2023-01-18T14:09:04.873Z,44.24
2023-01-18T14:14:08.717Z,44.31
2023-01-18T14:19:13.931Z,44.79
2023-01-18T14:24:28.362Z,45.07
2023-01-18T14:29:31.229Z,45.27
2023-01-18T14:34:39.229Z,45.59
2023-01-18T14:39:35.827Z,45.79
2023-01-18T14:44:48.677Z,45.92
2023-01-18T14:49:55.180Z,46.36
2023-01-18T14:54:54.219Z,46.27
2023-01-18T14:59:51.930Z,46.48
2023-01-18T15:04:48.970Z,46.82
2023-01-18T15:09:49.412Z,46.88
2023-01-18T15:20:25.786Z,46.90
2023-01-18T15:25:25.519Z,46.90
2023-01-18T15:30:23.091Z,46.94
2023-01-18T15:35:21.311Z,46.97
2023-01-18T15:40:32.966Z,47.20
2023-01-18T15:45:34.196Z,47.30
2023-01-18T15:50:33.191Z,47.67
2023-01-18T15:55:32.972Z,47.77
2023-01-18T16:00:31.833Z,48.12
2023-01-18T16:05:29.499Z,48.47
2023-01-18T16:10:29.674Z,48.97
2023-01-18T16:15:27.263Z,49.49
2023-01-18T16:20:23.930Z,49.57
2023-01-18T16:25:22.973Z,49.82
2023-01-18T16:30:20.960Z,50.37
2023-01-18T16:35:18.600Z,50.39
2023-01-18T16:40:16.355Z,50.59
2023-01-18T16:45:13.978Z,50.75
2023-01-18T16:50:13.905Z,51.00
2023-01-18T16:55:11.863Z,50.88
2023-01-18T17:00:15.233Z,50.93
2023-01-18T17:05:15.650Z,51.62
2023-01-18T17:10:19.270Z,51.97
2023-01-18T17:15:15.992Z,51.85
2023-01-18T17:20:16.665Z,51.90
2023-01-18T17:25:13.475Z,51.87
2023-01-18T17:30:11.217Z,51.61
2023-01-18T17:35:08.581Z,51.50
2023-01-18T17:40:22.557Z,51.17
2023-01-18T17:45:21.652Z,51.28
2023-01-18T17:50:24.109Z,51.14
2023-01-18T17:55:27.382Z,51.30
2023-01-18T18:00:27.280Z,51.13
2023-01-18T18:05:23.928Z,50.99
2023-01-18T18:10:21.512Z,51.26
2023-01-18T18:15:21.541Z,51.27
2023-01-18T18:20:18.500Z,51.17
2023-01-18T18:25:15.227Z,50.73
2023-01-18T18:30:14.314Z,50.79
2023-01-18T18:35:26.747Z,50.69
2023-01-18T18:40:23.828Z,50.57
2023-01-18T18:45:21.129Z,50.88
2023-01-18T18:50:20.412Z,50.98
2023-01-18T18:55:18.531Z,50.99
2023-01-18T19:00:15.497Z,50.79
2023-01-18T19:05:19.289Z,50.75
2023-01-18T19:10:15.985Z,51.06
2023-01-18T19:15:12.711Z,51.06
2023-01-18T19:20:13.274Z,51.25
2023-01-18T19:25:10.862Z,51.37
2023-01-18T19:30:12.255Z,51.58
2023-01-18T19:35:09.028Z,51.56
2023-01-18T19:40:06.309Z,51.93
2023-01-18T19:45:04.752Z,52.01
2023-01-18T19:50:04.407Z,52.15
2023-01-18T19:55:04.583Z,52.15
2023-01-18T20:00:06.451Z,52.20
2023-01-18T20:05:09.254Z,52.45
2023-01-18T20:10:06.383Z,52.77
2023-01-18T20:15:03.065Z,52.74
2023-01-18T20:19:59.693Z,52.57
2023-01-18T20:24:57.194Z,52.78
2023-01-18T20:29:53.948Z,53.02
2023-01-18T20:34:50.612Z,53.40
2023-01-18T20:39:49.611Z,53.66
2023-01-18T20:44:49.758Z,53.85
2023-01-18T20:49:46.505Z,54.41
2023-01-18T20:54:45.060Z,54.57
2023-01-18T20:59:41.779Z,54.85
2023-01-18T21:04:39.085Z,54.90
2023-01-18T21:09:35.625Z,54.83
2023-01-18T21:14:32.082Z,54.75
2023-01-18T21:19:28.779Z,55.07
2023-01-18T21:24:25.919Z,55.02
2023-01-18T21:29:22.586Z,55.29
2023-01-18T21:34:19.212Z,55.47
2023-01-18T21:39:17.984Z,55.93
2023-01-18T21:44:33.220Z,56.10
2023-01-18T21:50:18.454Z,56.59
2023-01-18T21:55:04.966Z,57.03
2023-01-18T22:00:02.448Z,57.24
2023-01-18T22:05:04.190Z,57.83
2023-01-18T22:10:06.013Z,58.22
2023-01-18T22:15:04.518Z,58.63
2023-01-18T22:20:01.364Z,58.99
2023-01-18T22:24:59.512Z,58.98
2023-01-18T22:29:56.193Z,59.38
2023-01-18T22:34:53.900Z,59.49
2023-01-18T22:39:51.081Z,59.83
2023-01-18T22:44:47.688Z,59.92
2023-01-18T22:49:44.363Z,60.13
2023-01-18T22:54:41.962Z,60.32
2023-01-18T22:59:38.622Z,60.62
2023-01-18T23:04:35.123Z,60.95
2023-01-18T23:09:31.797Z,61.00
2023-01-18T23:14:47.496Z,61.25
2023-01-18T23:19:44.270Z,61.42
2023-01-18T23:24:40.858Z,61.86
2023-01-18T23:29:39.302Z,62.03
2023-01-18T23:34:35.951Z,61.88
2023-01-18T23:39:50.428Z,62.29
2023-01-18T23:45:06.127Z,62.49
2023-01-18T23:50:21.048Z,63.09
2023-01-18T23:55:17.684Z,63.32
